createdAt,value
2019-05-18T00:01:21.226Z,96999.59
2019-05-18T00:03:51.231Z,96999.88
2019-05-18T00:06:21.238Z,96996.55
2019-05-18T00:08:51.700Z,97001.21
2019-05-18T00:11:21.797Z,97002.19
2019-05-18T00:13:51.914Z,97004.02
2019-05-18T00:16:21.844Z,97006.36
2019-05-18T00:18:51.985Z,96998.59
2019-05-18T00:21:22.094Z,97000.02
2019-05-18T00:35:16.791Z,96996.47
2019-05-18T00:37:46.783Z,97000.80
2019-05-18T00:40:17.588Z,97007.16
2019-05-18T00:42:47.599Z,97007.41
2019-05-18T00:51:39.481Z,96998.05
2019-05-18T00:54:09.646Z,96994.48
2019-05-18T01:03:22.258Z,96996.70
2019-05-18T01:05:52.232Z,96993.48
2019-05-18T01:08:22.332Z,96993.77
2019-05-18T01:10:52.336Z,96992.64
2019-05-18T01:13:22.320Z,96996.20
2019-05-18T01:29:14.076Z,96990.95
2019-05-18T01:31:44.132Z,96986.95
2019-05-18T01:34:14.246Z,96982.70
2019-05-18T01:36:44.268Z,96987.27
2019-05-18T01:39:14.253Z,96986.08
2019-05-18T01:41:44.731Z,96985.43
2019-05-18T01:44:14.795Z,96983.59
2019-05-18T01:50:35.503Z,96986.64
2019-05-18T01:53:05.586Z,96978.24
2019-05-18T01:55:35.623Z,96976.13
2019-05-18T01:58:05.604Z,96977.27
2019-05-18T02:00:35.614Z,96978.72
2019-05-18T02:06:57.237Z,96978.91
2019-05-18T02:09:27.999Z,96980.84
2019-05-18T02:11:57.935Z,96982.83
2019-05-18T02:14:27.982Z,96984.61
2019-05-18T02:16:57.975Z,96978.94
2019-05-18T02:19:28.081Z,96975.62
2019-05-18T02:21:58.040Z,96979.77
2019-05-18T02:28:18.582Z,96977.72
2019-05-18T02:30:48.584Z,96977.61
2019-05-18T02:37:09.138Z,96974.99
2019-05-18T02:39:39.149Z,96976.26
2019-05-18T02:42:09.470Z,96978.62
2019-05-18T02:44:39.532Z,96971.08
2019-05-18T02:47:09.573Z,96979.88
2019-05-18T03:08:45.047Z,96966.99
2019-05-18T03:11:14.941Z,96971.09
2019-05-18T03:42:38.412Z,96958.09
2019-05-18T03:45:09.637Z,96950.95
2019-05-18T03:47:39.614Z,96962.73
2019-05-18T03:50:10.649Z,96969.09
2019-05-18T03:52:40.607Z,96965.01
2019-05-18T03:59:01.706Z,96967.20
2019-05-18T04:16:28.035Z,96969.75
2019-05-18T04:18:57.933Z,96973.23
2019-05-18T04:25:19.897Z,96979.59
2019-05-18T04:35:03.465Z,96986.09
2019-05-18T04:37:33.694Z,96983.97
2019-05-18T04:40:03.751Z,96999.66
2019-05-18T04:46:18.685Z,96996.55
2019-05-18T05:30:28.368Z,97008.91
2019-05-18T05:48:01.907Z,97009.14
2019-05-18T05:50:36.201Z,97008.33
2019-05-18T05:53:03.505Z,97016.83
2019-05-18T05:55:33.422Z,97013.00
2019-05-18T06:01:54.663Z,97016.81
2019-05-18T06:04:24.746Z,97016.03
2019-05-18T06:06:54.668Z,97022.22
2019-05-18T06:09:24.615Z,97023.88
2019-05-18T06:22:50.516Z,97021.18
2019-05-18T06:51:43.898Z,97011.00
2019-05-18T07:09:14.166Z,97018.38
2019-05-18T07:21:21.773Z,97014.93
2019-05-18T07:59:59.433Z,97000.15
2019-05-18T08:02:29.742Z,97001.84
2019-05-18T08:04:59.756Z,97002.87
2019-05-18T08:07:29.649Z,96999.34
2019-05-18T08:23:28.747Z,96988.81
2019-05-18T08:25:59.475Z,96984.92
2019-05-18T08:28:29.475Z,96985.38
2019-05-18T08:30:59.521Z,96984.78
2019-05-18T08:33:30.232Z,96977.08
2019-05-18T08:36:00.270Z,96972.77
2019-05-18T08:38:30.162Z,96972.66
2019-05-18T08:41:00.170Z,96976.61
2019-05-18T08:43:30.711Z,96968.61
2019-05-18T09:22:23.584Z,96972.02
2019-05-18T09:24:53.645Z,96964.07
2019-05-18T09:27:23.920Z,96963.38
2019-05-18T09:52:09.350Z,96955.47
2019-05-18T09:54:39.281Z,96953.28
2019-05-18T09:57:09.259Z,96958.30
2019-05-18T09:59:39.184Z,96959.02
2019-05-18T10:02:09.584Z,96949.00
2019-05-18T10:04:39.526Z,96951.11
2019-05-18T10:07:09.683Z,96949.95
2019-05-18T10:09:39.924Z,96951.61
2019-05-18T10:15:26.029Z,96944.42
2019-05-18T10:17:55.995Z,96935.93
2019-05-18T10:20:26.119Z,96940.62
2019-05-18T10:23:11.830Z,96936.90
2019-05-18T10:29:19.865Z,96935.14
2019-05-18T10:31:49.879Z,96937.34
2019-05-18T10:34:19.758Z,96935.09
2019-05-18T11:03:34.178Z,96907.44
2019-05-18T11:06:04.520Z,96900.58
2019-05-18T11:35:31.551Z,96874.97
2019-05-18T12:00:33.556Z,96863.69
2019-05-18T12:03:03.587Z,96857.70
2019-05-18T12:05:33.486Z,96844.77
2019-05-18T12:08:03.528Z,96846.05
2019-05-18T12:10:33.430Z,96843.91
2019-05-18T12:13:03.367Z,96844.16
2019-05-18T12:15:33.463Z,96840.84
2019-05-18T12:21:55.107Z,96840.64
2019-05-18T12:24:24.988Z,96829.94
2019-05-18T12:26:55.197Z,96829.40
2019-05-18T12:29:25.114Z,96832.85
2019-05-18T12:31:55.004Z,96829.64
2019-05-18T12:34:24.978Z,96835.45
2019-05-18T12:36:54.928Z,96824.53
2019-05-18T12:39:24.857Z,96817.02
2019-05-18T12:41:54.762Z,96816.78
2019-05-18T12:44:24.661Z,96823.83
2019-05-18T12:46:54.643Z,96820.59
2019-05-18T12:49:24.568Z,96822.64
2019-05-18T12:51:54.847Z,96814.37
2019-05-18T12:54:30.894Z,96822.48
2019-05-18T12:56:56.478Z,96822.07
2019-05-18T12:59:26.559Z,96822.55
2019-05-18T13:01:57.163Z,96820.38
2019-05-18T13:04:27.082Z,96816.55
2019-05-18T13:06:56.985Z,96810.31
2019-05-18T13:09:26.981Z,96813.02
2019-05-18T13:11:56.878Z,96817.42
2019-05-18T13:14:27.319Z,96823.53
2019-05-18T13:16:57.237Z,96828.70
2019-05-18T13:19:27.271Z,96848.56
2019-05-18T13:21:57.443Z,96859.95
2019-05-18T13:24:27.544Z,96848.84
2019-05-18T13:26:57.562Z,96858.81
2019-05-18T13:29:27.635Z,96848.68
2019-05-18T13:31:57.537Z,96868.47
2019-05-18T13:34:27.469Z,96881.72
2019-05-18T13:36:57.374Z,96899.02
2019-05-18T13:39:27.660Z,96904.17
2019-05-18T13:41:57.674Z,96912.94
2019-05-18T13:44:27.637Z,96920.64
2019-05-18T13:46:57.940Z,96929.71
2019-05-18T13:49:27.888Z,96942.94
2019-05-18T13:51:57.912Z,96943.85
2019-05-18T13:54:28.027Z,96938.23
2019-05-18T13:56:58.251Z,96932.55
2019-05-18T13:59:29.164Z,96931.27
2019-05-18T14:01:59.196Z,96928.67
2019-05-18T14:23:37.189Z,96927.66
2019-05-18T14:33:26.447Z,96924.41
2019-05-18T14:43:16.236Z,96932.81
2019-05-18T14:45:49.233Z,96935.89
2019-05-18T14:48:18.325Z,96930.08
2019-05-18T14:50:48.344Z,96930.88
2019-05-18T14:53:18.848Z,96929.16
2019-05-18T14:55:49.108Z,96927.95
2019-05-18T14:58:19.218Z,96920.70
2019-05-18T15:00:49.833Z,96916.03
2019-05-18T15:03:19.811Z,96909.13
2019-05-18T15:05:49.763Z,96891.76
2019-05-18T15:08:19.753Z,96888.47
2019-05-18T15:10:49.842Z,96873.84
2019-05-18T15:13:20.313Z,96857.27
2019-05-18T15:15:50.390Z,96848.19
2019-05-18T15:22:11.640Z,96865.61
2019-05-18T15:24:41.709Z,96869.99
2019-05-18T16:03:32.059Z,96824.36
2019-05-18T16:46:24.514Z,96840.02
2019-05-18T16:48:54.401Z,96842.11
2019-05-18T16:51:24.391Z,96846.22
2019-05-18T16:53:54.304Z,96849.05
2019-05-18T16:56:34.616Z,96847.24
2019-05-18T16:58:55.983Z,96841.80
2019-05-18T17:01:26.785Z,96843.36
2019-05-18T17:03:56.759Z,96842.83
2019-05-18T17:06:26.757Z,96851.02
2019-05-18T17:12:41.786Z,96853.05
2019-05-18T17:37:48.062Z,96877.98
2019-05-18T17:40:18.192Z,96877.08
2019-05-18T17:42:48.121Z,96880.30
2019-05-18T17:45:18.358Z,96890.13
2019-05-18T17:47:48.461Z,96901.53
2019-05-18T17:50:18.573Z,96901.25
2019-05-18T17:52:49.416Z,96895.58
2019-05-18T17:55:19.584Z,96897.67
2019-05-18T17:57:49.567Z,96901.00
2019-05-18T18:11:48.161Z,96946.77
2019-05-18T18:14:18.354Z,96935.69
2019-05-18T18:16:48.255Z,96931.84
2019-05-18T18:19:18.743Z,96934.22
2019-05-18T18:25:43.025Z,96947.27
2019-05-18T18:28:13.240Z,96938.53
2019-05-18T18:30:43.236Z,96925.22
2019-05-18T18:33:13.365Z,96920.35
2019-05-18T18:35:43.372Z,96928.75
2019-05-18T18:38:13.435Z,96926.59
2019-05-18T18:40:43.935Z,96924.02
2019-05-18T18:43:14.891Z,96923.48
2019-05-18T18:49:48.428Z,96929.99
2019-05-18T18:52:18.515Z,96925.06
2019-05-18T18:54:48.864Z,96919.80
2019-05-18T18:57:18.783Z,96921.05
2019-05-18T18:59:49.228Z,96923.89
2019-05-18T19:02:19.166Z,96921.41
2019-05-18T19:04:49.216Z,96915.00
2019-05-18T19:07:19.051Z,96919.25
2019-05-18T19:09:49.060Z,96916.14
2019-05-18T19:12:19.531Z,96916.63
2019-05-18T19:14:49.829Z,96911.10
2019-05-18T19:17:20.037Z,96916.22
2019-05-18T19:19:50.273Z,96923.39
2019-05-18T19:22:20.247Z,96931.91
2019-05-18T19:24:50.270Z,96928.32
2019-05-18T19:27:20.899Z,96930.19
2019-05-18T19:29:50.863Z,96930.19
2019-05-18T19:32:21.052Z,96930.70
2019-05-18T19:34:51.479Z,96938.12
2019-05-18T19:52:40.451Z,96945.39
2019-05-18T19:55:10.738Z,96949.23
2019-05-18T19:57:40.584Z,96951.50
2019-05-18T20:00:11.692Z,96948.34
2019-05-18T20:02:41.682Z,96959.86
2019-05-18T20:05:12.725Z,96964.90
2019-05-18T20:07:42.753Z,96963.90
2019-05-18T20:10:14.877Z,96961.30
2019-05-18T20:12:44.851Z,96963.69
2019-05-18T20:15:15.417Z,96970.13
2019-05-18T20:17:45.368Z,96974.34
2019-05-18T20:20:15.811Z,96970.53
2019-05-18T20:29:05.886Z,96961.48
2019-05-18T20:31:36.034Z,96955.81
2019-05-18T20:34:05.934Z,96951.02
2019-05-18T20:36:37.088Z,96957.48
2019-05-18T20:39:07.753Z,96954.22
2019-05-18T20:41:37.871Z,96949.21
2019-05-18T20:44:07.989Z,96950.70
2019-05-18T20:46:38.777Z,96948.66
2019-05-18T20:49:08.758Z,96943.28
2019-05-18T21:03:08.494Z,96951.02
2019-05-18T21:05:38.523Z,96951.00
2019-05-18T21:08:08.541Z,96953.60
2019-05-18T21:10:38.657Z,96946.75
2019-05-18T21:13:08.688Z,96952.03
2019-05-18T21:15:38.633Z,96955.05
2019-05-18T21:22:00.174Z,96947.58
2019-05-18T21:24:30.358Z,96946.76
2019-05-18T21:27:00.327Z,96943.33
2019-05-18T21:29:30.241Z,96951.98
2019-05-18T21:32:00.193Z,96949.47
2019-05-18T21:34:30.106Z,96955.29
2019-05-18T21:40:50.947Z,96965.67
2019-05-18T21:43:20.955Z,96975.48
2019-05-18T21:45:50.876Z,96972.42
2019-05-18T21:48:20.795Z,96972.20
2019-05-18T21:50:50.727Z,96974.11
2019-05-18T21:53:20.988Z,96982.63
2019-05-18T21:55:50.899Z,96989.13
2019-05-18T21:58:20.825Z,96990.00
2019-05-18T22:00:51.141Z,96996.44
2019-05-18T22:03:21.554Z,96993.47
2019-05-18T22:05:51.570Z,96993.47
2019-05-18T22:21:49.710Z,97009.16
2019-05-18T22:24:20.090Z,97001.73
2019-05-18T22:26:52.408Z,97000.45
2019-05-18T22:29:22.494Z,96995.86
2019-05-18T22:31:52.583Z,96995.56
2019-05-18T22:38:07.646Z,96992.39
2019-05-18T22:40:37.573Z,96985.75
2019-05-18T22:43:07.562Z,96980.64
2019-05-18T22:49:28.363Z,96975.73
2019-05-18T22:51:58.327Z,96971.03
2019-05-18T22:54:28.223Z,96965.82
2019-05-18T22:56:58.199Z,96969.75
2019-05-18T23:03:13.153Z,96962.39
2019-05-18T23:24:53.388Z,96932.61
2019-05-18T23:37:01.039Z,96920.87
2019-05-18T23:39:30.938Z,96927.86
